createdAt,value
2022-10-29T00:00:17.264Z,16.05
2022-10-29T00:03:04.683Z,16.55
2022-10-29T00:05:32.439Z,16.92
2022-10-29T00:07:59.681Z,17.27
2022-10-29T00:10:26.895Z,16.65
2022-10-29T00:12:54.323Z,16.95
2022-10-29T00:15:21.715Z,16.00
2022-10-29T00:17:48.953Z,16.17
2022-10-29T00:20:16.008Z,17.52
2022-10-29T00:22:43.148Z,16.55
2022-10-29T00:25:10.100Z,17.38
2022-10-29T00:27:37.329Z,17.27
2022-10-29T00:30:04.901Z,17.33
2022-10-29T00:32:31.986Z,17.05
2022-10-29T00:34:59.150Z,17.38
2022-10-29T00:37:26.184Z,17.38
2022-10-29T00:39:53.130Z,17.10
2022-10-29T00:42:20.385Z,17.05
2022-10-29T00:44:47.607Z,17.23
2022-10-29T00:47:19.735Z,16.17
2022-10-29T00:50:00.934Z,17.05
2022-10-29T00:52:32.548Z,16.33
2022-10-29T00:55:03.013Z,16.63
2022-10-29T00:57:36.896Z,17.05
2022-10-29T01:00:05.434Z,17.40
2022-10-29T01:02:34.954Z,17.38
2022-10-29T01:05:04.081Z,17.73
2022-10-29T01:07:31.466Z,16.63
2022-10-29T01:09:58.809Z,18.42
2022-10-29T01:13:07.174Z,17.63
2022-10-29T01:16:11.198Z,16.95
2022-10-29T01:18:54.405Z,16.48
2022-10-29T01:21:34.737Z,17.33
2022-10-29T01:24:22.516Z,16.80
2022-10-29T01:27:27.461Z,16.08
2022-10-29T01:30:04.181Z,16.25
2022-10-29T01:32:50.081Z,16.52
2022-10-29T01:35:45.306Z,17.58
2022-10-29T01:38:51.898Z,17.17
2022-10-29T01:41:48.759Z,17.20
2022-10-29T01:44:29.588Z,16.92
2022-10-29T01:47:02.677Z,17.42
2022-10-29T01:49:45.621Z,16.63
2022-10-29T01:52:15.370Z,17.05
2022-10-29T01:54:47.425Z,15.13
2022-10-29T01:57:36.500Z,15.65
2022-10-29T02:00:06.785Z,16.35
2022-10-29T02:02:57.905Z,17.92
2022-10-29T02:05:35.424Z,16.73
2022-10-29T02:08:27.169Z,16.20
2022-10-29T02:11:08.667Z,16.33
2022-10-29T02:13:44.452Z,17.30
2022-10-29T02:16:12.525Z,16.33
2022-10-29T02:18:41.816Z,15.32
2022-10-29T02:21:09.051Z,16.10
2022-10-29T02:23:36.148Z,16.25
2022-10-29T02:26:03.369Z,14.88
2022-10-29T02:28:30.345Z,15.90
2022-10-29T02:30:57.312Z,15.18
2022-10-29T02:33:24.521Z,16.38
2022-10-29T02:35:51.522Z,15.25
2022-10-29T02:38:18.545Z,15.45
2022-10-29T02:40:45.731Z,15.65
2022-10-29T02:43:12.733Z,15.65
2022-10-29T02:45:39.740Z,16.38
2022-10-29T02:48:07.070Z,14.80
2022-10-29T02:50:35.243Z,14.38
2022-10-29T02:53:02.275Z,15.27
2022-10-29T02:55:29.485Z,14.30
2022-10-29T02:57:56.714Z,15.45
2022-10-29T03:00:23.889Z,15.88
2022-10-29T03:02:54.130Z,14.50
2022-10-29T03:05:21.388Z,14.93
2022-10-29T03:07:48.343Z,15.30
2022-10-29T03:10:15.531Z,14.63
2022-10-29T03:12:42.488Z,15.23
2022-10-29T03:15:10.024Z,15.02
2022-10-29T03:17:37.439Z,13.95
2022-10-29T03:20:04.936Z,14.48
2022-10-29T03:22:31.899Z,14.65
2022-10-29T03:24:59.139Z,14.25
2022-10-29T03:27:26.125Z,15.18
2022-10-29T03:29:53.189Z,14.90
2022-10-29T03:32:20.418Z,14.63
2022-10-29T03:34:47.333Z,14.10
2022-10-29T03:37:14.292Z,14.50
2022-10-29T03:39:41.514Z,13.90
2022-10-29T03:42:08.479Z,14.65
2022-10-29T03:44:35.444Z,14.57
2022-10-29T03:47:02.637Z,13.80
2022-10-29T03:49:29.617Z,14.57
2022-10-29T03:51:56.570Z,14.57
2022-10-29T03:54:23.730Z,14.10
2022-10-29T03:56:50.675Z,13.60
2022-10-29T03:59:17.829Z,15.23
2022-10-29T04:01:44.947Z,14.30
2022-10-29T04:04:12.339Z,16.45
2022-10-29T04:06:39.401Z,14.95
2022-10-29T04:09:06.689Z,15.10
2022-10-29T04:11:33.743Z,14.35
2022-10-29T04:14:00.992Z,15.68
2022-10-29T04:16:27.955Z,16.25
2022-10-29T04:18:54.947Z,15.13
2022-10-29T04:29:43.480Z,16.77
2022-10-29T04:32:10.717Z,14.95
2022-10-29T04:34:37.818Z,14.68
2022-10-29T04:37:05.065Z,13.63
2022-10-29T04:39:32.253Z,14.65
2022-10-29T04:41:59.229Z,13.93
2022-10-29T04:44:26.223Z,14.15
2022-10-29T04:46:53.388Z,14.70
2022-10-29T04:49:20.462Z,14.18
2022-10-29T04:51:47.761Z,14.43
2022-10-29T04:54:15.619Z,14.90
2022-10-29T04:56:42.953Z,15.13
2022-10-29T04:59:10.198Z,15.18
2022-10-29T05:01:37.825Z,16.25
2022-10-29T05:04:04.910Z,15.27
2022-10-29T05:06:31.896Z,15.57
2022-10-29T05:08:59.044Z,16.45
2022-10-29T05:11:26.049Z,16.42
2022-10-29T05:13:53.332Z,15.77
2022-10-29T05:16:20.354Z,16.25
2022-10-29T05:18:47.616Z,18.85
2022-10-29T05:21:14.633Z,15.20
2022-10-29T05:23:41.806Z,15.10
2022-10-29T05:26:08.779Z,21.33
2022-10-29T05:28:35.948Z,24.13
2022-10-29T05:31:02.948Z,20.60
2022-10-29T05:33:30.175Z,18.25
2022-10-29T05:36:01.048Z,17.00
2022-10-29T05:38:28.508Z,15.63
2022-10-29T05:40:58.640Z,16.15
2022-10-29T05:43:26.148Z,15.93
2022-10-29T05:45:53.379Z,20.10
2022-10-29T05:48:20.596Z,17.13
2022-10-29T05:50:47.757Z,17.67
2022-10-29T05:53:15.323Z,17.90
2022-10-29T05:55:42.734Z,15.52
2022-10-29T05:58:12.254Z,16.02
2022-10-29T06:00:42.396Z,15.25
2022-10-29T06:03:15.796Z,16.02
2022-10-29T06:05:42.893Z,17.55
2022-10-29T06:08:10.471Z,17.30
2022-10-29T06:10:37.839Z,16.10
2022-10-29T06:13:18.055Z,16.95
2022-10-29T06:15:49.495Z,17.00
2022-10-29T06:18:17.021Z,17.75
2022-10-29T06:20:44.090Z,16.98
2022-10-29T06:23:11.790Z,16.65
2022-10-29T06:25:38.849Z,15.48
2022-10-29T06:28:12.206Z,15.77
2022-10-29T06:30:39.814Z,14.63
2022-10-29T06:33:07.732Z,16.75
2022-10-29T06:38:10.879Z,18.63
2022-10-29T06:40:39.589Z,32.67
2022-10-29T06:43:12.348Z,23.02
2022-10-29T06:45:40.188Z,32.15
2022-10-29T06:48:07.743Z,22.77
2022-10-29T06:50:34.814Z,35.05
2022-10-29T06:53:04.602Z,27.25
2022-10-29T06:55:34.306Z,16.05
2022-10-29T06:58:06.063Z,22.65
2022-10-29T07:00:34.681Z,24.85
2022-10-29T07:03:03.388Z,17.00
2022-10-29T07:05:31.001Z,16.02
2022-10-29T07:07:59.639Z,25.33
2022-10-29T07:10:30.007Z,30.08
2022-10-29T07:12:57.394Z,23.83
2022-10-29T07:15:27.585Z,16.98
2022-10-29T07:18:07.760Z,15.30
2022-10-29T07:20:37.757Z,14.32
2022-10-29T07:23:05.379Z,15.10
2022-10-29T07:25:33.866Z,17.05
2022-10-29T07:28:05.897Z,29.25
2022-10-29T07:30:33.657Z,20.42
2022-10-29T07:33:00.893Z,18.45
2022-10-29T07:35:28.053Z,19.25
2022-10-29T07:38:09.081Z,19.23
2022-10-29T07:40:38.862Z,24.92
2022-10-29T07:43:06.447Z,18.50
2022-10-29T07:45:33.877Z,17.92
2022-10-29T07:48:09.423Z,19.90
2022-10-29T07:50:38.314Z,20.42
2022-10-29T07:53:06.945Z,20.25
2022-10-29T07:55:34.298Z,22.98
2022-10-29T07:58:04.115Z,31.85
2022-10-29T08:00:33.824Z,23.05
2022-10-29T08:03:00.839Z,23.45
2022-10-29T08:05:29.397Z,21.90
2022-10-29T08:07:57.245Z,23.45
2022-10-29T08:10:25.531Z,29.20
2022-10-29T08:12:57.972Z,26.48
2022-10-29T08:15:27.210Z,25.67
2022-10-29T08:17:54.854Z,20.02
2022-10-29T08:20:23.770Z,24.02
2022-10-29T08:22:51.073Z,29.33
2022-10-29T08:25:18.930Z,22.60
2022-10-29T08:27:46.206Z,25.13
2022-10-29T08:30:14.696Z,18.75
2022-10-29T08:32:47.963Z,30.35
2022-10-29T08:35:15.522Z,19.88
2022-10-29T08:37:44.124Z,18.95
2022-10-29T08:40:47.946Z,26.17
2022-10-29T08:43:43.253Z,18.67
2022-10-29T08:46:29.377Z,17.73
2022-10-29T08:49:02.656Z,14.52
2022-10-29T08:51:38.810Z,13.93
2022-10-29T08:54:43.321Z,17.02
2022-10-29T08:57:15.012Z,15.77
2022-10-29T09:00:13.034Z,15.05
2022-10-29T09:02:40.481Z,16.35
2022-10-29T09:05:18.803Z,15.73
2022-10-29T09:08:22.042Z,15.63
2022-10-29T09:10:55.790Z,15.65
2022-10-29T09:13:31.649Z,16.20
2022-10-29T09:16:10.438Z,18.38
2022-10-29T09:19:05.518Z,16.25
2022-10-29T09:21:34.170Z,17.70
2022-10-29T09:24:09.531Z,18.73
2022-10-29T09:26:59.119Z,16.20
2022-10-29T09:29:35.161Z,17.65
2022-10-29T09:32:33.474Z,15.63
2022-10-29T09:35:14.702Z,14.43
2022-10-29T09:37:45.915Z,14.27
2022-10-29T09:40:37.111Z,15.40
2022-10-29T09:43:42.550Z,15.40
2022-10-29T09:46:31.064Z,15.93
2022-10-29T09:49:09.661Z,16.02
2022-10-29T09:51:43.596Z,18.15
2022-10-29T09:54:11.145Z,15.10
2022-10-29T09:56:43.570Z,14.27
2022-10-29T09:59:30.087Z,15.00
2022-10-29T10:01:59.125Z,12.65
2022-10-29T10:04:34.527Z,14.93
2022-10-29T10:07:16.905Z,13.77
2022-10-29T10:09:59.971Z,14.15
2022-10-29T10:12:48.185Z,13.10
2022-10-29T10:15:25.366Z,12.60
2022-10-29T10:17:57.782Z,12.45
2022-10-29T10:20:39.060Z,11.23
2022-10-29T10:23:29.598Z,11.77
2022-10-29T10:26:02.324Z,11.73
2022-10-29T10:28:36.111Z,14.20
2022-10-29T10:31:11.863Z,12.68
2022-10-29T10:33:53.735Z,11.88
2022-10-29T10:36:24.565Z,11.40
2022-10-29T10:38:55.194Z,11.45
2022-10-29T10:41:33.090Z,11.00
2022-10-29T10:44:03.445Z,10.85
2022-10-29T10:46:34.907Z,10.95
2022-10-29T10:49:14.398Z,10.52
2022-10-29T10:51:49.909Z,11.80
2022-10-29T10:54:28.075Z,11.18
2022-10-29T10:57:11.221Z,12.65
2022-10-29T11:00:13.677Z,13.45
2022-10-29T11:03:08.950Z,13.02
2022-10-29T11:05:40.539Z,11.07
2022-10-29T11:08:18.889Z,14.75
2022-10-29T11:11:17.681Z,17.75
2022-10-29T11:13:45.019Z,11.13
2022-10-29T11:16:12.262Z,11.57
2022-10-29T11:18:47.770Z,10.95
2022-10-29T11:21:24.923Z,10.07
2022-10-29T11:23:58.691Z,14.10
2022-10-29T11:26:30.466Z,10.75
2022-10-29T11:29:14.418Z,13.57
2022-10-29T11:31:48.022Z,11.18
2022-10-29T11:34:23.266Z,10.63
2022-10-29T11:37:23.033Z,13.18
2022-10-29T11:39:57.966Z,13.70
2022-10-29T11:42:26.083Z,12.48
2022-10-29T11:44:53.583Z,11.27
2022-10-29T11:47:26.663Z,12.48
2022-10-29T11:50:30.256Z,10.55
2022-10-29T11:53:11.173Z,10.25
2022-10-29T11:56:06.998Z,8.02
2022-10-29T11:58:43.945Z,7.55
2022-10-29T12:01:37.958Z,8.07
2022-10-29T12:04:29.047Z,9.32
2022-10-29T12:07:21.902Z,9.77
2022-10-29T12:10:19.749Z,8.15
2022-10-29T12:13:11.123Z,8.07
2022-10-29T12:15:52.305Z,8.45
2022-10-29T12:18:41.604Z,8.52
2022-10-29T12:21:11.461Z,9.48
2022-10-29T12:23:50.945Z,8.48
2022-10-29T12:26:44.756Z,12.85
2022-10-29T12:29:21.010Z,24.40
2022-10-29T12:31:56.315Z,25.35
2022-10-29T12:34:42.226Z,11.20
2022-10-29T12:37:18.510Z,19.95
2022-10-29T12:39:50.427Z,13.90
2022-10-29T12:42:26.872Z,7.93
2022-10-29T12:45:17.966Z,7.80
2022-10-29T12:48:00.518Z,6.97
2022-10-29T12:50:58.639Z,8.95
2022-10-29T12:53:39.820Z,6.63
2022-10-29T12:56:09.197Z,8.18
2022-10-29T12:58:53.134Z,7.70
2022-10-29T13:01:57.308Z,9.00
2022-10-29T13:04:30.368Z,11.02
2022-10-29T13:07:06.246Z,9.20
2022-10-29T13:09:36.131Z,9.27
2022-10-29T13:12:09.792Z,10.00
2022-10-29T13:15:02.074Z,8.35
2022-10-29T13:17:35.006Z,11.27
2022-10-29T13:20:22.638Z,9.82
2022-10-29T13:22:52.803Z,8.13
2022-10-29T13:25:37.945Z,9.65
2022-10-29T13:28:11.265Z,11.82
2022-10-29T13:30:46.448Z,10.25
2022-10-29T13:33:28.724Z,10.43
2022-10-29T13:36:06.654Z,11.38
2022-10-29T13:39:05.749Z,11.35
2022-10-29T13:41:44.127Z,13.63
2022-10-29T13:44:29.165Z,16.98
2022-10-29T13:47:02.759Z,13.98
2022-10-29T13:54:50.744Z,11.00
2022-10-29T13:57:34.439Z,10.15
2022-10-29T14:00:16.791Z,10.50
2022-10-29T14:02:57.704Z,11.35
2022-10-29T14:05:29.588Z,10.50
2022-10-29T14:08:17.015Z,10.38
2022-10-29T14:10:50.424Z,15.90
2022-10-29T14:13:31.704Z,16.30
2022-10-29T14:16:07.492Z,10.82
2022-10-29T14:18:40.745Z,9.55
2022-10-29T14:21:13.605Z,17.38
2022-10-29T14:23:43.427Z,12.35
2022-10-29T14:28:52.635Z,9.35
2022-10-29T14:31:26.318Z,12.52
2022-10-29T14:33:58.764Z,13.68
2022-10-29T14:36:38.541Z,12.05
2022-10-29T14:39:37.050Z,12.60
2022-10-29T14:42:20.782Z,10.73
2022-10-29T14:44:52.267Z,13.23
2022-10-29T14:47:33.791Z,12.40
2022-10-29T14:50:04.176Z,14.80
2022-10-29T14:52:31.496Z,13.13
2022-10-29T14:55:25.198Z,12.32
2022-10-29T14:58:04.339Z,14.27
2022-10-29T15:00:36.950Z,11.93
2022-10-29T15:03:07.324Z,19.92
2022-10-29T15:05:39.566Z,16.85
2022-10-29T15:08:14.781Z,16.63
2022-10-29T15:10:59.646Z,42.25
2022-10-29T15:15:58.722Z,29.15
2022-10-29T15:18:26.347Z,25.17
2022-10-29T15:20:55.605Z,17.50
2022-10-29T15:23:35.386Z,21.50
2022-10-29T15:26:03.912Z,20.35
2022-10-29T15:28:42.738Z,17.58
2022-10-29T15:31:45.926Z,20.63
2022-10-29T15:34:22.089Z,20.63
2022-10-29T15:36:56.167Z,26.08
2022-10-29T15:39:26.995Z,22.23
2022-10-29T15:41:59.466Z,24.92
2022-10-29T15:44:39.428Z,16.80
2022-10-29T15:47:28.105Z,19.88
2022-10-29T15:49:55.971Z,19.25
2022-10-29T15:52:30.730Z,17.77
2022-10-29T15:54:59.398Z,19.80
2022-10-29T15:57:26.961Z,19.20
2022-10-29T15:59:59.369Z,22.48
2022-10-29T16:02:26.954Z,28.48
2022-10-29T16:04:53.986Z,27.85
2022-10-29T16:07:21.028Z,35.42
2022-10-29T16:09:53.774Z,40.22
2022-10-29T16:12:20.866Z,33.42
2022-10-29T16:14:48.110Z,33.97
2022-10-29T16:17:20.983Z,33.75
2022-10-29T16:19:48.507Z,29.73
2022-10-29T16:22:36.399Z,30.52
2022-10-29T16:25:03.779Z,41.97
2022-10-29T16:27:32.685Z,45.72
2022-10-29T16:29:59.931Z,34.65
2022-10-29T16:32:27.429Z,23.80
2022-10-29T16:34:59.212Z,19.92
2022-10-29T16:37:26.518Z,19.20
2022-10-29T16:39:54.177Z,26.05
2022-10-29T16:42:35.568Z,26.02
2022-10-29T16:45:04.046Z,21.02
2022-10-29T16:47:31.263Z,20.25
2022-10-29T16:49:58.746Z,18.23
2022-10-29T16:52:29.525Z,23.80
2022-10-29T16:54:57.457Z,21.58
2022-10-29T16:57:25.072Z,21.50
2022-10-29T16:59:52.365Z,23.73
2022-10-29T17:02:19.453Z,26.70
2022-10-29T17:04:48.779Z,32.95
2022-10-29T17:07:18.320Z,34.72
2022-10-29T17:09:45.396Z,28.30
2022-10-29T17:12:12.496Z,29.25
2022-10-29T17:14:40.103Z,84.88
2022-10-29T17:17:07.178Z,34.72
2022-10-29T17:19:34.582Z,46.95
2022-10-29T17:22:04.218Z,33.85
2022-10-29T17:24:31.297Z,28.10
2022-10-29T17:26:58.885Z,25.08
2022-10-29T17:29:26.158Z,20.50
2022-10-29T17:31:56.635Z,21.13
2022-10-29T17:34:24.348Z,20.45
2022-10-29T17:36:53.388Z,28.15
2022-10-29T17:39:21.263Z,28.70
2022-10-29T17:41:51.173Z,26.33
2022-10-29T17:44:20.148Z,23.60
2022-10-29T17:46:47.203Z,32.00
2022-10-29T17:49:14.941Z,44.00
2022-10-29T17:51:41.893Z,36.50
2022-10-29T17:54:09.419Z,29.40
2022-10-29T17:56:36.693Z,25.73
2022-10-29T17:59:03.884Z,33.03
2022-10-29T18:01:31.306Z,34.95
2022-10-29T18:04:06.508Z,22.55
2022-10-29T18:06:33.840Z,26.38
2022-10-29T18:09:01.264Z,30.35
2022-10-29T18:11:28.867Z,29.35
2022-10-29T18:13:57.164Z,35.70
2022-10-29T18:16:26.588Z,28.35
2022-10-29T18:19:02.247Z,28.42
2022-10-29T18:21:31.019Z,27.85
2022-10-29T18:23:58.744Z,30.45
2022-10-29T18:26:30.827Z,29.27
2022-10-29T18:29:00.326Z,31.05
2022-10-29T18:31:30.587Z,25.58
2022-10-29T18:33:59.656Z,27.35
2022-10-29T18:36:27.447Z,24.35
2022-10-29T18:38:56.310Z,27.88
2022-10-29T18:41:24.177Z,24.58
2022-10-29T18:43:51.995Z,25.38
2022-10-29T18:46:19.941Z,25.55
2022-10-29T18:48:48.001Z,32.40
2022-10-29T18:51:24.357Z,38.35
2022-10-29T18:53:53.503Z,32.05
2022-10-29T18:56:22.469Z,31.80
2022-10-29T18:58:50.323Z,33.60
2022-10-29T19:01:24.586Z,35.80
2022-10-29T19:03:57.089Z,31.38
2022-10-29T19:06:26.783Z,59.35
2022-10-29T19:08:54.437Z,38.28
2022-10-29T19:11:26.196Z,34.88
2022-10-29T19:13:56.021Z,31.85
2022-10-29T19:16:24.262Z,34.47
2022-10-29T19:18:56.470Z,36.88
2022-10-29T19:21:24.192Z,34.97
2022-10-29T19:24:00.234Z,28.05
2022-10-29T19:26:29.507Z,41.35
2022-10-29T19:29:00.348Z,38.60
2022-10-29T19:31:29.689Z,33.35
2022-10-29T19:34:02.065Z,25.17
2022-10-29T19:36:31.121Z,24.92
2022-10-29T19:39:00.458Z,24.63
2022-10-29T19:41:27.743Z,24.63
2022-10-29T19:43:57.922Z,22.85
2022-10-29T19:46:25.279Z,21.85
2022-10-29T19:48:54.171Z,21.35
2022-10-29T19:51:22.230Z,22.65
2022-10-29T19:53:53.253Z,21.65
2022-10-29T19:56:21.620Z,20.98
2022-10-29T19:58:49.109Z,22.70
2022-10-29T20:01:18.703Z,21.70
2022-10-29T20:03:47.016Z,23.00
2022-10-29T20:06:14.896Z,24.33
2022-10-29T20:08:42.058Z,30.23
2022-10-29T20:11:09.540Z,19.50
2022-10-29T20:13:39.748Z,31.08
2022-10-29T20:16:13.479Z,38.00
2022-10-29T20:18:40.528Z,30.10
2022-10-29T20:21:08.403Z,27.52
2022-10-29T20:23:36.170Z,27.17
2022-10-29T20:26:03.542Z,23.52
2022-10-29T20:28:30.849Z,18.27
2022-10-29T20:31:12.290Z,29.95
2022-10-29T20:33:39.602Z,25.77
2022-10-29T20:36:06.917Z,20.85
2022-10-29T20:38:34.444Z,22.77
2022-10-29T20:41:01.477Z,22.67
2022-10-29T20:43:28.645Z,19.95
2022-10-29T20:46:03.268Z,18.75
2022-10-29T20:48:30.547Z,23.05
2022-10-29T20:50:57.694Z,24.30
2022-10-29T20:53:24.730Z,20.70
2022-10-29T20:55:52.099Z,16.83
2022-10-29T20:58:21.136Z,19.05
2022-10-29T21:00:49.017Z,19.30
2022-10-29T21:03:17.963Z,19.10
2022-10-29T21:05:45.091Z,18.25
2022-10-29T21:08:12.247Z,17.00
2022-10-29T21:10:39.466Z,19.30
2022-10-29T21:13:06.606Z,22.08
2022-10-29T21:15:36.764Z,22.17
2022-10-29T21:18:04.340Z,26.33
2022-10-29T21:20:32.659Z,30.38
2022-10-29T21:23:00.305Z,29.63
2022-10-29T21:25:27.571Z,28.63
2022-10-29T21:27:55.792Z,29.20
2022-10-29T21:30:23.251Z,31.13
2022-10-29T21:32:50.369Z,64.70
2022-10-29T21:35:17.556Z,45.35
2022-10-29T21:37:44.987Z,43.13
2022-10-29T21:40:12.427Z,41.90
2022-10-29T21:42:40.120Z,45.45
2022-10-29T21:45:07.947Z,68.25
2022-10-29T21:47:34.986Z,62.45
2022-10-29T21:50:02.093Z,59.78
2022-10-29T21:52:29.284Z,49.65
2022-10-29T21:54:56.242Z,36.22
2022-10-29T21:57:23.238Z,31.98
2022-10-29T21:59:50.572Z,33.65
2022-10-29T22:02:17.761Z,30.33
2022-10-29T22:04:44.791Z,28.20
2022-10-29T22:07:11.989Z,25.73
2022-10-29T22:09:38.961Z,23.02
2022-10-29T22:12:06.241Z,21.58
2022-10-29T22:14:33.621Z,28.48
2022-10-29T22:17:00.608Z,31.75
2022-10-29T22:19:27.660Z,30.98
2022-10-29T22:21:55.941Z,31.77
2022-10-29T22:24:22.934Z,32.65
2022-10-29T22:26:49.929Z,30.70
2022-10-29T22:29:17.190Z,36.78
2022-10-29T22:31:44.221Z,38.78
2022-10-29T22:34:11.268Z,32.97
2022-10-29T22:36:39.592Z,28.75
2022-10-29T22:39:06.630Z,28.80
2022-10-29T22:41:33.677Z,34.10
2022-10-29T22:44:01.199Z,30.90
2022-10-29T22:46:29.731Z,25.77
2022-10-29T22:48:57.634Z,27.60
2022-10-29T22:51:27.070Z,27.75
2022-10-29T22:53:54.652Z,23.98
2022-10-29T22:56:33.470Z,27.90
2022-10-29T22:59:01.091Z,28.02
2022-10-29T23:01:37.320Z,28.13
2022-10-29T23:04:07.725Z,23.45
2022-10-29T23:06:34.836Z,25.55
2022-10-29T23:09:01.877Z,23.40
2022-10-29T23:11:32.162Z,23.33
2022-10-29T23:14:01.542Z,19.65
2022-10-29T23:16:30.780Z,19.48
2022-10-29T23:19:01.149Z,19.05
2022-10-29T23:21:28.743Z,17.42
2022-10-29T23:23:56.493Z,17.50
2022-10-29T23:26:25.168Z,20.98
2022-10-29T23:28:52.194Z,44.25
2022-10-29T23:31:21.531Z,28.88
2022-10-29T23:33:51.169Z,24.40
2022-10-29T23:36:19.574Z,22.60
2022-10-29T23:38:46.723Z,20.73
2022-10-29T23:41:14.332Z,18.90
2022-10-29T23:43:41.575Z,16.10
2022-10-29T23:46:08.587Z,16.25
2022-10-29T23:48:35.766Z,16.58
2022-10-29T23:51:02.744Z,18.45
2022-10-29T23:53:29.710Z,16.65
2022-10-29T23:55:57.313Z,18.73
2022-10-29T23:58:24.525Z,19.40
